メインページ
METAR-TAF:

METAR-TAF

空港 :

Arlington Municipal Airport

アーリントン, ワシントン, アメリカ合衆国

緯度: 48-10N, 経度: 122-10W, 海抜: 42m

現時点の気象観測

当レポートは58分前の08:56(UTC)に作成
北西の風 4kt
気温 17°C
湿度 77%
気圧 1019 hPa
視程: 16.1km

METAR: KAWO 030856Z AUTO 31004KT 10SM 17/13 A3010 RMK AO2 SLP197 T01670133 53002 $

時間: 02:54 (09:54 UTC)


TAF: 見つかりません

4,000以上の空港の気象観測と天気予報(METAR報とTAF報)

利用可能な観測所は地図上に黄色い丸と赤い丸で示す。

丸の上にカーソルを重ねると観測所名を参照できる。

次にクリックすると気象観測と天気予報を参照できる。

マップの切り替え:黒色「×」印の緑ボタンをクリックして拡大、「-」印の緑ボタンをクリックして縮小、緑色の三角印をクリックして隣りの地図に切り替え


METAR-TAF: